createdAt,value
2018-06-23T07:31:06.895Z,15.30
2018-06-23T07:51:26.744Z,15.50
2018-06-23T08:14:51.055Z,15.80
2018-06-23T08:28:47.761Z,16.40
2018-06-23T08:49:25.797Z,16.80
2018-06-23T08:58:11.310Z,17.10
2018-06-23T09:44:54.611Z,17.10
2018-06-23T09:53:19.669Z,16.90
2018-06-23T09:55:48.337Z,16.90
2018-06-23T10:04:02.297Z,17.10
2018-06-23T10:06:34.327Z,17.20
2018-06-23T10:09:04.829Z,17.10
2018-06-23T10:11:45.466Z,17.10
2018-06-23T10:14:15.986Z,17.20
2018-06-23T10:16:45.098Z,17.30
2018-06-23T10:19:15.649Z,17.50
2018-06-23T10:21:45.291Z,17.70
2018-06-23T10:24:20.732Z,17.80
2018-06-23T10:26:49.730Z,17.90
2018-06-23T10:29:18.699Z,17.90
2018-06-23T10:31:48.151Z,18.10
2018-06-23T10:34:18.829Z,18.20
2018-06-23T10:36:47.685Z,18.30
2018-06-23T10:39:16.377Z,18.20
2018-06-23T10:41:45.093Z,18.20
2018-06-23T10:44:14.604Z,18.10
2018-06-23T10:46:44.099Z,18.00
2018-06-23T10:49:14.041Z,18.00
2018-06-23T10:51:43.310Z,18.10
2018-06-23T10:54:14.155Z,18.30
2018-06-23T10:56:45.455Z,18.50
2018-06-23T10:59:16.406Z,18.70
2018-06-23T11:01:46.783Z,19.00
2018-06-23T11:04:20.908Z,19.10
2018-06-23T11:06:49.774Z,19.10
2018-06-23T11:09:34.056Z,19.00
2018-06-23T11:12:11.351Z,18.90
2018-06-23T11:14:40.261Z,18.90
2018-06-23T11:17:09.866Z,18.80
2018-06-23T11:19:39.484Z,18.70
2018-06-23T11:22:08.607Z,18.60
2018-06-23T11:24:37.887Z,18.50
2018-06-23T11:27:07.016Z,18.40
2018-06-23T11:29:36.157Z,18.20
2018-06-23T11:32:06.209Z,18.10
2018-06-23T11:34:44.631Z,18.10
2018-06-23T11:37:16.178Z,18.10
2018-06-23T11:39:48.050Z,18.20
2018-06-23T11:42:23.674Z,18.30
2018-06-23T11:44:55.244Z,18.30
2018-06-23T11:47:26.129Z,18.20
2018-06-23T11:49:57.027Z,18.20
2018-06-23T11:52:30.398Z,18.30
2018-06-23T12:07:23.908Z,18.80
2018-06-23T12:21:55.465Z,19.50
2018-06-23T12:34:06.256Z,19.20
2018-06-23T12:36:35.633Z,19.70
2018-06-23T12:42:07.076Z,19.90
2018-06-23T12:52:32.322Z,19.80
2018-06-23T12:58:02.143Z,19.50
2018-06-23T13:18:37.361Z,19.20
2018-06-23T13:21:07.328Z,19.10
2018-06-23T13:23:48.989Z,18.90
2018-06-23T13:40:39.554Z,18.90
2018-06-23T13:44:48.029Z,18.60
2018-06-23T13:47:38.937Z,18.70
2018-06-23T13:50:09.289Z,18.90
2018-06-23T13:52:55.312Z,18.90
2018-06-23T13:58:55.267Z,18.90
2018-06-23T14:01:45.564Z,18.90
2018-06-23T14:04:24.914Z,18.90
2018-06-23T14:06:58.281Z,19.00
2018-06-23T14:09:29.228Z,19.30
2018-06-23T14:12:16.496Z,19.40
2018-06-23T14:14:48.431Z,19.50
2018-06-23T14:17:29.646Z,19.50
2018-06-23T14:26:03.200Z,19.80
2018-06-23T14:41:18.484Z,19.40
2018-06-23T14:46:59.574Z,19.10
2018-06-23T15:05:58.396Z,19.70
2018-06-23T15:11:34.713Z,19.70
2018-06-23T15:20:45.528Z,19.70
2018-06-23T15:23:24.986Z,19.90
2018-06-23T15:26:04.175Z,19.60
2018-06-23T15:38:59.569Z,19.50
2018-06-23T15:47:47.161Z,19.10
2018-06-23T15:50:17.922Z,19.10
2018-06-23T15:52:49.244Z,19.10
2018-06-23T15:58:29.708Z,19.20
2018-06-23T16:01:13.959Z,19.30
2018-06-23T16:04:00.547Z,19.30
2018-06-23T16:07:15.973Z,19.40
2018-06-23T16:09:47.839Z,19.40
2018-06-23T16:12:19.087Z,19.50
2018-06-23T16:45:22.754Z,19.60
2018-06-23T16:58:56.251Z,18.90
2018-06-23T17:01:35.533Z,18.90
2018-06-23T17:04:07.184Z,18.90
2018-06-23T17:06:39.444Z,19.00
2018-06-23T17:09:12.016Z,19.00
2018-06-23T17:11:41.805Z,19.10
2018-06-23T17:17:05.924Z,19.00
2018-06-23T17:19:39.369Z,19.00
2018-06-23T17:30:29.349Z,18.90
2018-06-23T17:33:00.553Z,18.90
2018-06-23T17:56:50.426Z,18.30
2018-06-23T18:00:25.839Z,18.20
2018-06-23T18:03:01.538Z,18.20
2018-06-23T18:05:30.911Z,18.20
2018-06-23T18:08:03.228Z,18.20
2018-06-23T18:35:45.091Z,17.90
2018-06-23T18:57:50.291Z,17.70
2018-06-23T19:00:43.128Z,17.70
2018-06-23T22:46:02.445Z,15.80
2018-06-23T22:48:34.442Z,15.80
2018-06-23T22:51:11.806Z,15.80
2018-06-23T22:53:44.766Z,15.70
2018-06-23T23:14:10.963Z,15.80
2018-06-23T23:16:59.742Z,15.70
2018-06-23T23:19:38.023Z,15.70
2018-06-23T23:23:06.036Z,15.70
2018-06-23T23:25:45.086Z,15.70
2018-06-23T23:33:26.727Z,15.70
2018-06-23T23:39:34.797Z,15.60
2018-06-23T23:42:20.625Z,15.60
2018-06-23T23:46:10.412Z,15.60
2018-06-23T23:48:42.446Z,15.60
2018-06-23T23:51:18.292Z,15.60
2018-06-23T23:58:13.038Z,15.60
